Nags Head, North Carolina
Current Conditions -  °F | °C
As of 10:35 PM on Saturday 25 Oct 2014 (Local Time) from KFFA Reporting Station
Clear Clear  
Wind Chill: 60°   Ceiling: Unl
Heat Index: 60°   Visibility: 10mi
Dew Point: 50°   Wind: 7mph
Humidity: 71%   Direction: 240°WSW
Pressure: 29.84"   Gusts: NA
Location:  35.96°N, 75.62°W
Report Text: KFFA 260235Z AUTO 24006KT 10SM CLR 16/10 A2984 RMK AO2 T01550102
Loading
Personal Weather Stations






























Interactive Weather Map New forecast layout! Learn more

10-Day Weather Forecast

Advertisements
Track Severe Weather on mobile